Time;durP1;ratioP1;P1;durP2;ratioP2;P2;SDS_P1;SDS_P2;PMS_P1;PMS_P2;Temp;Humidity;BMP_temperature;BMP_pressure;BME280_temperature;BME280_humidity;BME280_pressure;Samples;Min_cycle;Max_cycle;Signal;HPM_P1;HPM_P2
2022/12/07 00:01:13;;;;;;;0.60;0.60;;;;;;;;;;1856619;75;26182;-86
2022/12/07 00:03:40;;;;;;;0.70;0.70;;;;;;;;;;1852886;77;26206;-86
2022/12/07 00:06:09;;;;;;;0.70;0.70;;;;;;;;;;1855497;76;26634;-85
2022/12/07 00:08:36;;;;;;;1.42;0.82;;;;;;;;;;1852979;76;26323;-85
2022/12/07 00:11:08;;;;;;;0.90;0.90;;;;;;;;;;1855145;75;26678;-85
2022/12/07 00:13:35;;;;;;;0.80;0.80;;;;;;;;;;1856318;75;26209;-84
2022/12/07 00:16:04;;;;;;;1.70;0.72;;;;;;;;;;1854866;77;26176;-86
2022/12/07 00:18:31;;;;;;;0.60;0.60;;;;;;;;;;1844274;77;26205;-85
2022/12/07 00:21:03;;;;;;;0.80;0.80;;;;;;;;;;1861902;76;26291;-85
2022/12/07 00:23:30;;;;;;;0.80;0.80;;;;;;;;;;1848989;75;26184;-85
2022/12/07 00:25:59;;;;;;;0.80;0.80;;;;;;;;;;1853479;76;26185;-86
2022/12/07 00:28:26;;;;;;;0.80;0.80;;;;;;;;;;1853773;75;26154;-85
2022/12/07 00:30:55;;;;;;;0.70;0.70;;;;;;;;;;1858192;76;26827;-84
2022/12/07 00:33:22;;;;;;;0.80;0.80;;;;;;;;;;1855020;75;26198;-85
2022/12/07 00:35:51;;;;;;;0.70;0.70;;;;;;;;;;1863459;75;26196;-84
2022/12/07 00:38:18;;;;;;;0.70;0.70;;;;;;;;;;1848332;75;26189;-85
2022/12/07 00:40:47;;;;;;;0.70;0.70;;;;;;;;;;1852984;77;26260;-85
2022/12/07 00:43:14;;;;;;;0.65;0.65;;;;;;;;;;1855947;77;26285;-84
2022/12/07 00:45:42;;;;;;;0.70;0.70;;;;;;;;;;1853229;77;26160;-84
2022/12/07 00:48:09;;;;;;;1.10;0.80;;;;;;;;;;1859732;77;26166;-87
2022/12/07 00:50:36;;;;;;;0.75;0.75;;;;;;;;;;1872310;75;26920;-86
2022/12/07 00:53:03;;;;;;;0.70;0.70;;;;;;;;;;1857591;76;26210;-85
2022/12/07 00:55:32;;;;;;;0.80;0.80;;;;;;;;;;1862498;76;26184;-84
2022/12/07 00:57:59;;;;;;;0.70;0.70;;;;;;;;;;1855820;75;26184;-87
2022/12/07 01:00:27;;;;;;;0.80;0.80;;;;;;;;;;1863668;74;26235;-86
2022/12/07 01:02:54;;;;;;;0.62;0.62;;;;;;;;;;1857166;74;26176;-87
2022/12/07 01:05:21;;;;;;;0.70;0.70;;;;;;;;;;1855497;74;26238;-88
2022/12/07 01:07:48;;;;;;;0.70;0.70;;;;;;;;;;1856140;77;26149;-84
2022/12/07 01:10:16;;;;;;;0.60;0.60;;;;;;;;;;1851595;77;26164;-86
2022/12/07 01:12:43;;;;;;;0.62;0.62;;;;;;;;;;1862977;75;26156;-87
2022/12/07 01:15:10;;;;;;;0.82;0.82;;;;;;;;;;1856858;76;26202;-86
2022/12/07 01:17:38;;;;;;;0.80;0.80;;;;;;;;;;1854200;75;26148;-86
2022/12/07 01:20:05;;;;;;;0.80;0.80;;;;;;;;;;1850161;76;26218;-86
2022/12/07 01:22:34;;;;;;;0.80;0.80;;;;;;;;;;1857751;76;26246;-88
2022/12/07 01:25:02;;;;;;;0.70;0.70;;;;;;;;;;1864863;75;26245;-85
2022/12/07 01:27:29;;;;;;;0.70;0.70;;;;;;;;;;1856680;75;26270;-85
2022/12/07 01:29:56;;;;;;;0.60;0.60;;;;;;;;;;1857639;75;26219;-86
2022/12/07 01:32:23;;;;;;;0.60;0.60;;;;;;;;;;1883036;76;26265;-87
2022/12/07 01:34:51;;;;;;;0.50;0.50;;;;;;;;;;1890920;75;26194;-85
2022/12/07 01:42:57;;;;;;;0.60;0.60;;;;;;;;;;1832201;73;50410;-54
2022/12/07 01:45:41;;;;;;;0.60;0.60;;;;;;;;;;1820663;78;26323;-43
2022/12/07 01:48:10;;;;;;;0.50;0.50;;;;;;;;;;1822305;78;26272;-50
2022/12/07 01:50:38;;;;;;;0.60;0.60;;;;;;;;;;1827775;78;26304;-48
2022/12/07 01:53:07;;;;;;;0.65;0.65;;;;;;;;;;1822198;78;26740;-61
2022/12/07 01:55:35;;;;;;;0.75;0.68;;;;;;;;;;1823983;78;26283;-50
2022/12/07 01:58:03;;;;;;;0.60;0.60;;;;;;;;;;1827654;78;26233;-49
2022/12/07 02:00:30;;;;;;;0.60;0.60;;;;;;;;;;1824076;78;26674;-45
2022/12/07 02:02:59;;;;;;;0.60;0.60;;;;;;;;;;1823557;78;26202;-49
2022/12/07 02:05:27;;;;;;;0.60;0.60;;;;;;;;;;1826648;78;26213;-43
2022/12/07 02:07:55;;;;;;;0.65;0.65;;;;;;;;;;1828207;78;26630;-46
2022/12/07 02:10:27;;;;;;;0.60;0.60;;;;;;;;;;1826331;78;26292;-55
2022/12/07 02:12:55;;;;;;;0.50;0.50;;;;;;;;;;1812705;78;26274;-48
2022/12/07 02:15:24;;;;;;;0.65;0.65;;;;;;;;;;1828405;78;26210;-39
2022/12/07 02:17:59;;;;;;;0.60;0.60;;;;;;;;;;1824943;78;26221;-48
2022/12/07 02:20:28;;;;;;;0.60;0.60;;;;;;;;;;1825238;78;26201;-43
2022/12/07 02:22:59;;;;;;;0.60;0.60;;;;;;;;;;1821238;78;26221;-48
2022/12/07 02:25:44;;;;;;;0.60;0.60;;;;;;;;;;1827474;78;26302;-48
2022/12/07 02:28:31;;;;;;;0.60;0.60;;;;;;;;;;1828358;78;26650;-46
2022/12/07 02:31:00;;;;;;;0.60;0.60;;;;;;;;;;1826502;78;26291;-47
2022/12/07 02:33:35;;;;;;;0.75;0.50;;;;;;;;;;1828221;78;26303;-48
2022/12/07 02:36:04;;;;;;;0.70;0.70;;;;;;;;;;1825986;78;26269;-46
2022/12/07 02:38:42;;;;;;;0.45;0.45;;;;;;;;;;1824502;78;26308;-42
2022/12/07 02:41:11;;;;;;;0.62;0.62;;;;;;;;;;1820830;78;26229;-46
2022/12/07 02:43:42;;;;;;;0.93;0.88;;;;;;;;;;1836444;77;26647;-46
2022/12/07 02:46:11;;;;;;;0.65;0.65;;;;;;;;;;1856262;77;27286;-53
2022/12/07 02:48:39;;;;;;;0.60;0.60;;;;;;;;;;1855486;77;26156;-46
2022/12/07 02:51:06;;;;;;;0.60;0.60;;;;;;;;;;1857637;77;26207;-47
2022/12/07 02:53:35;;;;;;;0.50;0.50;;;;;;;;;;1859361;77;26159;-48
2022/12/07 02:56:04;;;;;;;0.60;0.60;;;;;;;;;;1859555;77;26208;-46
2022/12/07 02:58:33;;;;;;;0.60;0.60;;;;;;;;;;1854256;77;26171;-45
2022/12/07 03:01:10;;;;;;;0.70;0.60;;;;;;;;;;1856943;77;26172;-44
2022/12/07 03:03:38;;;;;;;0.60;0.60;;;;;;;;;;1858709;77;26151;-42
2022/12/07 03:06:06;;;;;;;0.60;0.60;;;;;;;;;;1859489;77;26159;-41
2022/12/07 03:08:38;;;;;;;0.50;0.50;;;;;;;;;;1859378;77;26289;-42
2022/12/07 03:11:07;;;;;;;0.70;0.70;;;;;;;;;;1854478;77;26176;-42
2022/12/07 03:13:41;;;;;;;0.57;0.57;;;;;;;;;;1856231;77;26572;-41
2022/12/07 03:16:13;;;;;;;0.50;0.50;;;;;;;;;;1857570;77;26225;-58
2022/12/07 03:18:42;;;;;;;0.80;0.80;;;;;;;;;;1858178;77;26667;-45
2022/12/07 03:21:10;;;;;;;0.57;0.57;;;;;;;;;;1842086;77;27007;-48
2022/12/07 03:23:39;;;;;;;0.70;0.70;;;;;;;;;;1859398;77;26175;-45
2022/12/07 03:26:08;;;;;;;0.50;0.50;;;;;;;;;;1859408;77;26615;-46
2022/12/07 03:28:37;;;;;;;0.53;0.53;;;;;;;;;;1859125;77;26687;-47
2022/12/07 03:31:08;;;;;;;0.68;0.68;;;;;;;;;;1845027;77;26203;-40
2022/12/07 03:33:46;;;;;;;0.55;0.55;;;;;;;;;;1848421;77;26225;-45
2022/12/07 03:36:21;;;;;;;0.50;0.50;;;;;;;;;;1858616;77;26596;-44
2022/12/07 03:38:58;;;;;;;0.60;0.60;;;;;;;;;;1858808;77;26328;-52
2022/12/07 03:41:27;;;;;;;0.50;0.50;;;;;;;;;;1850312;77;26143;-45
2022/12/07 03:43:55;;;;;;;0.50;0.50;;;;;;;;;;1860237;77;26277;-48
2022/12/07 03:46:24;;;;;;;0.60;0.60;;;;;;;;;;1859884;76;26194;-45
2022/12/07 03:48:55;;;;;;;0.57;0.57;;;;;;;;;;1867701;77;26160;-53
2022/12/07 03:51:27;;;;;;;0.60;0.60;;;;;;;;;;1867087;76;26201;-41
2022/12/07 03:54:04;;;;;;;0.50;0.50;;;;;;;;;;1866606;77;26292;-52
2022/12/07 03:56:33;;;;;;;0.60;0.60;;;;;;;;;;1792787;78;26339;-41
2022/12/07 03:59:00;;;;;;;0.60;0.60;;;;;;;;;;1864177;76;26219;-46
2022/12/07 04:01:28;;;;;;;0.60;0.60;;;;;;;;;;1864394;76;26222;-50
2022/12/07 04:03:55;;;;;;;0.60;0.60;;;;;;;;;;1866949;76;26198;-43
2022/12/07 04:06:22;;;;;;;0.60;0.60;;;;;;;;;;1869861;75;26305;-45
2022/12/07 04:08:49;;;;;;;0.57;0.57;;;;;;;;;;1864587;75;26163;-47
2022/12/07 04:11:17;;;;;;;0.53;0.53;;;;;;;;;;1868000;75;26182;-49
2022/12/07 04:16:29;;;;;;;0.50;0.50;;;;;;;;;;1865143;77;26223;-46
2022/12/07 04:18:56;;;;;;;1.12;0.70;;;;;;;;;;1872762;75;26361;-51
2022/12/07 04:21:23;;;;;;;0.60;0.60;;;;;;;;;;1867848;76;26194;-46
2022/12/07 04:23:51;;;;;;;0.50;0.50;;;;;;;;;;1867454;77;26196;-41
2022/12/07 04:26:18;;;;;;;0.50;0.50;;;;;;;;;;1867937;76;26276;-46
2022/12/07 04:28:45;;;;;;;0.50;0.50;;;;;;;;;;1867730;76;26177;-48
2022/12/07 04:31:12;;;;;;;0.50;0.50;;;;;;;;;;1864606;76;26211;-42
2022/12/07 04:33:40;;;;;;;0.50;0.50;;;;;;;;;;1867656;76;26218;-44
2022/12/07 04:36:07;;;;;;;0.50;0.50;;;;;;;;;;1863258;76;26245;-45
2022/12/07 04:38:34;;;;;;;0.57;0.57;;;;;;;;;;1866085;76;26662;-49
2022/12/07 04:41:06;;;;;;;0.60;0.60;;;;;;;;;;1865418;77;26313;-43
2022/12/07 04:43:34;;;;;;;0.60;0.60;;;;;;;;;;1865960;76;26164;-48
2022/12/07 04:46:01;;;;;;;0.60;0.60;;;;;;;;;;1855882;77;26253;-48
2022/12/07 04:48:28;;;;;;;0.50;0.50;;;;;;;;;;1868154;76;26620;-45
2022/12/07 04:50:55;;;;;;;0.40;0.40;;;;;;;;;;1867608;76;26198;-44
2022/12/07 04:53:23;;;;;;;0.50;0.50;;;;;;;;;;1856822;76;26261;-43
2022/12/07 04:55:50;;;;;;;0.47;0.47;;;;;;;;;;1866037;76;26917;-58
2022/12/07 04:58:17;;;;;;;0.40;0.40;;;;;;;;;;1859965;75;26781;-45
2022/12/07 05:00:44;;;;;;;0.50;0.50;;;;;;;;;;1867623;77;26781;-43
2022/12/07 05:03:12;;;;;;;0.70;0.70;;;;;;;;;;1868012;76;26997;-41
2022/12/07 05:05:41;;;;;;;0.55;0.55;;;;;;;;;;1864134;76;26202;-46
2022/12/07 05:08:08;;;;;;;0.45;0.45;;;;;;;;;;1872318;75;26327;-39
2022/12/07 05:10:36;;;;;;;0.40;0.40;;;;;;;;;;1866330;77;26182;-41
2022/12/07 05:13:03;;;;;;;0.50;0.50;;;;;;;;;;1867595;76;26155;-42
2022/12/07 05:15:30;;;;;;;0.55;0.55;;;;;;;;;;1867761;77;26218;-50
2022/12/07 05:17:57;;;;;;;0.42;0.42;;;;;;;;;;1863880;76;26731;-50
2022/12/07 05:20:25;;;;;;;0.50;0.50;;;;;;;;;;1867772;77;26263;-43
2022/12/07 05:22:52;;;;;;;0.53;0.53;;;;;;;;;;1868030;76;26245;-41
2022/12/07 05:25:19;;;;;;;0.50;0.50;;;;;;;;;;1867105;76;26226;-40
2022/12/07 05:27:47;;;;;;;0.30;0.30;;;;;;;;;;1864793;76;26210;-46
2022/12/07 05:30:14;;;;;;;0.50;0.50;;;;;;;;;;1865850;76;26162;-42
2022/12/07 05:32:41;;;;;;;0.50;0.50;;;;;;;;;;1867309;76;26159;-47
2022/12/07 05:35:09;;;;;;;0.40;0.40;;;;;;;;;;1865409;76;26268;-48
2022/12/07 05:37:36;;;;;;;0.55;0.55;;;;;;;;;;1858725;77;26666;-49
2022/12/07 05:40:04;;;;;;;0.50;0.50;;;;;;;;;;1866434;77;26182;-45
2022/12/07 05:42:31;;;;;;;0.50;0.50;;;;;;;;;;1852020;77;26253;-47
2022/12/07 05:44:59;;;;;;;0.57;0.57;;;;;;;;;;1867803;76;26588;-53
2022/12/07 05:47:26;;;;;;;0.35;0.35;;;;;;;;;;1865062;76;26298;-47
2022/12/07 05:49:54;;;;;;;0.62;0.50;;;;;;;;;;1865581;77;26946;-42
2022/12/07 05:52:21;;;;;;;0.53;0.53;;;;;;;;;;1864773;77;26705;-49
2022/12/07 05:54:48;;;;;;;0.42;0.42;;;;;;;;;;1867531;76;26261;-52
2022/12/07 05:57:17;;;;;;;0.50;0.50;;;;;;;;;;1867817;76;26171;-49
2022/12/07 05:59:44;;;;;;;0.45;0.45;;;;;;;;;;1867071;77;26293;-43
2022/12/07 06:02:13;;;;;;;0.45;0.45;;;;;;;;;;1864969;76;26260;-45
2022/12/07 06:04:41;;;;;;;0.40;0.40;;;;;;;;;;1858881;76;26206;-50
2022/12/07 06:07:09;;;;;;;0.35;0.35;;;;;;;;;;1866686;75;26675;-45
2022/12/07 06:09:36;;;;;;;0.50;0.50;;;;;;;;;;1864953;77;26156;-52
2022/12/07 06:14:49;;;;;;;0.88;0.88;;;;;;;;;;1866372;76;26195;-43
2022/12/07 06:17:17;;;;;;;1.20;1.20;;;;;;;;;;1854346;76;26171;-51
2022/12/07 06:19:44;;;;;;;1.35;1.35;;;;;;;;;;1856422;75;26701;-49
2022/12/07 06:22:11;;;;;;;2.00;1.90;;;;;;;;;;1861539;75;26167;-42
2022/12/07 06:24:39;;;;;;;2.72;2.55;;;;;;;;;;1867360;75;26171;-42
2022/12/07 06:27:06;;;;;;;3.50;3.22;;;;;;;;;;1865836;75;26324;-47
2022/12/07 06:29:34;;;;;;;8.25;5.80;;;;;;;;;;1864600;77;26260;-42
2022/12/07 06:32:01;;;;;;;9.18;6.10;;;;;;;;;;1868182;75;26167;-40
2022/12/07 06:34:28;;;;;;;10.10;6.40;;;;;;;;;;1866106;76;26221;-45
2022/12/07 06:36:56;;;;;;;12.98;7.03;;;;;;;;;;1867512;77;26256;-50
2022/12/07 06:39:25;;;;;;;10.65;6.97;;;;;;;;;;1862877;76;26281;-42
2022/12/07 06:41:52;;;;;;;12.55;6.90;;;;;;;;;;1861725;77;26706;-53
2022/12/07 06:44:20;;;;;;;12.95;7.28;;;;;;;;;;1868116;76;26210;-42
2022/12/07 06:46:47;;;;;;;12.03;6.58;;;;;;;;;;1867688;77;26225;-46
2022/12/07 06:49:15;;;;;;;10.25;6.60;;;;;;;;;;1864418;77;26193;-46
2022/12/07 06:51:42;;;;;;;11.93;6.08;;;;;;;;;;1863968;76;26579;-43
2022/12/07 06:54:11;;;;;;;9.60;5.80;;;;;;;;;;1867740;77;26599;-46
2022/12/07 06:56:39;;;;;;;9.68;5.67;;;;;;;;;;1852069;77;26268;-40
2022/12/07 06:59:07;;;;;;;8.33;5.47;;;;;;;;;;1867517;76;26628;-46
2022/12/07 07:01:35;;;;;;;8.33;5.15;;;;;;;;;;1865720;76;26207;-42
2022/12/07 07:04:02;;;;;;;6.00;4.80;;;;;;;;;;1867742;77;26197;-44
2022/12/07 07:06:29;;;;;;;18.92;4.60;;;;;;;;;;1868682;75;26195;-48
2022/12/07 07:08:57;;;;;;;7.40;4.40;;;;;;;;;;1863507;75;26717;-47
2022/12/07 07:11:24;;;;;;;5.50;4.17;;;;;;;;;;1867304;76;26592;-51
2022/12/07 07:13:51;;;;;;;4.70;3.58;;;;;;;;;;1862785;77;26781;-47
2022/12/07 07:16:18;;;;;;;5.12;3.47;;;;;;;;;;1868185;77;26634;-44
2022/12/07 07:18:46;;;;;;;4.60;3.55;;;;;;;;;;1859904;77;26206;-47
2022/12/07 07:21:13;;;;;;;5.42;3.30;;;;;;;;;;1867849;77;26191;-42
2022/12/07 07:23:40;;;;;;;4.42;3.02;;;;;;;;;;1867270;77;26156;-46
2022/12/07 07:26:07;;;;;;;2.83;2.60;;;;;;;;;;1865609;76;26260;-42
2022/12/07 07:28:35;;;;;;;2.83;2.62;;;;;;;;;;1860051;77;26167;-56
2022/12/07 07:31:02;;;;;;;2.90;2.62;;;;;;;;;;1865762;77;26202;-43
2022/12/07 07:33:29;;;;;;;2.52;2.33;;;;;;;;;;1868014;77;26182;-44
2022/12/07 07:35:56;;;;;;;2.40;2.20;;;;;;;;;;1867742;77;26225;-47
2022/12/07 07:38:24;;;;;;;2.40;2.20;;;;;;;;;;1862562;76;26261;-48
2022/12/07 07:40:51;;;;;;;2.08;1.87;;;;;;;;;;1856614;77;26237;-51
2022/12/07 07:43:18;;;;;;;2.17;1.98;;;;;;;;;;1866791;77;26292;-46
2022/12/07 07:45:46;;;;;;;1.75;1.65;;;;;;;;;;1867117;76;26150;-48
2022/12/07 07:48:13;;;;;;;4.85;1.10;;;;;;;;;;1851895;76;26234;-38
2022/12/07 07:50:40;;;;;;;2.85;1.30;;;;;;;;;;1848947;77;26131;-38
2022/12/07 07:53:08;;;;;;;3.05;1.30;;;;;;;;;;1849108;77;26260;-43
2022/12/07 07:55:35;;;;;;;3.02;1.10;;;;;;;;;;1847497;77;26336;-40
2022/12/07 07:58:02;;;;;;;1.70;1.27;;;;;;;;;;1835137;76;27772;-37
2022/12/07 08:00:30;;;;;;;1.55;1.07;;;;;;;;;;1848424;76;26284;-45
2022/12/07 08:02:57;;;;;;;1.72;1.00;;;;;;;;;;1847130;77;26212;-48
2022/12/07 08:05:24;;;;;;;0.90;0.90;;;;;;;;;;1848866;77;26255;-51
2022/12/07 08:07:51;;;;;;;1.07;1.07;;;;;;;;;;1849609;77;26148;-44
2022/12/07 08:10:19;;;;;;;0.90;0.90;;;;;;;;;;1844666;76;26234;-51
2022/12/07 08:15:31;;;;;;;0.95;0.90;;;;;;;;;;1842697;77;26274;-50
2022/12/07 08:17:59;;;;;;;1.00;1.00;;;;;;;;;;1847940;77;26352;-42
2022/12/07 08:20:26;;;;;;;1.22;1.00;;;;;;;;;;1851676;77;26267;-50
2022/12/07 08:22:53;;;;;;;1.45;0.90;;;;;;;;;;1846670;77;26281;-52
2022/12/07 08:25:22;;;;;;;0.75;0.75;;;;;;;;;;1847108;76;26231;-41
2022/12/07 08:27:49;;;;;;;0.80;0.80;;;;;;;;;;1851390;77;26714;-47
2022/12/07 08:30:16;;;;;;;0.80;0.80;;;;;;;;;;1851189;77;26731;-44
2022/12/07 08:32:45;;;;;;;1.15;1.00;;;;;;;;;;1842552;77;26202;-38
2022/12/07 08:35:13;;;;;;;0.80;0.80;;;;;;;;;;1847597;77;26230;-40
2022/12/07 08:37:40;;;;;;;0.80;0.80;;;;;;;;;;1843691;77;26717;-41
2022/12/07 08:40:08;;;;;;;1.00;0.90;;;;;;;;;;1840402;77;26221;-43
2022/12/07 08:42:39;;;;;;;0.70;0.70;;;;;;;;;;1848079;77;26203;-49
2022/12/07 08:45:07;;;;;;;0.75;0.75;;;;;;;;;;1848668;77;26245;-41
2022/12/07 08:47:39;;;;;;;1.40;0.75;;;;;;;;;;1847225;77;26246;-43
2022/12/07 08:50:07;;;;;;;0.80;0.80;;;;;;;;;;1851273;75;26533;-44
2022/12/07 08:52:35;;;;;;;0.82;0.78;;;;;;;;;;1852691;76;26705;-42
2022/12/07 08:55:04;;;;;;;0.80;0.80;;;;;;;;;;1851276;77;26222;-36
2022/12/07 08:57:32;;;;;;;0.80;0.80;;;;;;;;;;1851376;75;26683;-42
2022/12/07 09:00:00;;;;;;;7.42;0.80;;;;;;;;;;1850660;75;26269;-38
2022/12/07 09:02:27;;;;;;;1.40;0.70;;;;;;;;;;1853243;76;26225;-41
2022/12/07 09:04:54;;;;;;;0.70;0.70;;;;;;;;;;1852830;75;26171;-38
2022/12/07 09:07:21;;;;;;;0.70;0.70;;;;;;;;;;1857009;76;26261;-40
2022/12/07 09:09:49;;;;;;;0.80;0.68;;;;;;;;;;1850281;77;26215;-37
2022/12/07 09:12:16;;;;;;;0.85;0.85;;;;;;;;;;1852003;76;26749;-42
2022/12/07 09:14:43;;;;;;;0.85;0.80;;;;;;;;;;1850206;77;26304;-53
2022/12/07 09:17:11;;;;;;;0.60;0.60;;;;;;;;;;1851761;76;26732;-40
2022/12/07 09:19:40;;;;;;;0.70;0.70;;;;;;;;;;1851134;76;26270;-40
2022/12/07 09:22:07;;;;;;;1.60;1.45;;;;;;;;;;1855414;77;26323;-40
2022/12/07 09:24:34;;;;;;;1.42;0.68;;;;;;;;;;1850546;77;26159;-41
2022/12/07 09:27:02;;;;;;;0.80;0.80;;;;;;;;;;1852701;76;26263;-38
2022/12/07 09:29:29;;;;;;;1.85;0.80;;;;;;;;;;1853777;76;26215;-41
2022/12/07 09:31:56;;;;;;;2.08;0.65;;;;;;;;;;1849956;76;26163;-43
2022/12/07 09:34:23;;;;;;;1.10;0.70;;;;;;;;;;1855579;77;26231;-43
2022/12/07 09:36:51;;;;;;;0.82;0.82;;;;;;;;;;1851982;77;26560;-40
2022/12/07 09:39:18;;;;;;;0.70;0.70;;;;;;;;;;1853083;77;26204;-38
2022/12/07 09:41:46;;;;;;;1.47;0.72;;;;;;;;;;1854752;76;26686;-38
2022/12/07 09:44:14;;;;;;;1.27;0.80;;;;;;;;;;1853881;76;26310;-42
2022/12/07 09:46:43;;;;;;;0.80;0.80;;;;;;;;;;1853597;76;26835;-41
2022/12/07 09:49:12;;;;;;;3.47;1.60;;;;;;;;;;1854285;76;26148;-41
2022/12/07 09:51:39;;;;;;;2.15;1.60;;;;;;;;;;1857639;75;26269;-38
2022/12/07 09:54:06;;;;;;;3.65;1.70;;;;;;;;;;1854990;76;26609;-39
2022/12/07 09:56:34;;;;;;;3.22;1.42;;;;;;;;;;1857010;75;26160;-39
2022/12/07 09:59:02;;;;;;;2.83;1.50;;;;;;;;;;1853538;75;26222;-37
2022/12/07 10:01:33;;;;;;;1.50;1.40;;;;;;;;;;1858594;76;26690;-53
2022/12/07 10:04:14;;;;;;;1.92;1.30;;;;;;;;;;1848594;75;26347;-51
2022/12/07 10:06:41;;;;;;;1.87;1.40;;;;;;;;;;1854027;75;26242;-46
2022/12/07 10:09:10;;;;;;;1.67;1.57;;;;;;;;;;1851822;75;26191;-39
2022/12/07 10:11:39;;;;;;;4.42;1.77;;;;;;;;;;1853499;76;26614;-39
2022/12/07 10:14:13;;;;;;;4.22;1.70;;;;;;;;;;1853845;76;26666;-37
2022/12/07 10:16:42;;;;;;;3.58;1.80;;;;;;;;;;1853469;76;26740;-47
2022/12/07 10:19:28;;;;;;;4.83;2.27;;;;;;;;;;1856945;76;28043;-53
2022/12/07 10:22:06;;;;;;;7.53;3.62;;;;;;;;;;1853318;76;26295;-39
2022/12/07 10:24:33;;;;;;;6.08;3.20;;;;;;;;;;1853643;76;26311;-38
2022/12/07 10:27:00;;;;;;;6.70;2.92;;;;;;;;;;1853686;76;26624;-40
2022/12/07 10:29:32;;;;;;;4.30;2.72;;;;;;;;;;1855220;76;26178;-37
2022/12/07 10:32:00;;;;;;;4.12;2.62;;;;;;;;;;1854283;76;26206;-55
2022/12/07 10:34:29;;;;;;;8.98;3.00;;;;;;;;;;1853822;76;26609;-40
2022/12/07 10:37:16;;;;;;;6.37;2.58;;;;;;;;;;1852449;76;26274;-38
2022/12/07 10:39:47;;;;;;;7.40;2.50;;;;;;;;;;1854145;75;26251;-42
2022/12/07 10:42:22;;;;;;;3.50;2.17;;;;;;;;;;1857891;76;26249;-40
2022/12/07 10:44:50;;;;;;;4.15;2.62;;;;;;;;;;1856701;76;26289;-42
2022/12/07 10:47:34;;;;;;;6.35;2.08;;;;;;;;;;1854560;76;26160;-39
2022/12/07 10:50:09;;;;;;;4.40;2.45;;;;;;;;;;1851422;76;26245;-39
2022/12/07 10:52:37;;;;;;;5.07;2.10;;;;;;;;;;1852665;76;28108;-39
2022/12/07 10:55:12;;;;;;;1.95;1.70;;;;;;;;;;1849434;76;26284;-44
2022/12/07 10:57:44;;;;;;;3.67;1.80;;;;;;;;;;1855719;76;26331;-50
2022/12/07 11:00:25;;;;;;;5.47;2.22;;;;;;;;;;1852654;76;26266;-40
2022/12/07 11:02:54;;;;;;;1.65;1.55;;;;;;;;;;1853289;76;26611;-41
2022/12/07 11:05:29;;;;;;;5.80;1.70;;;;;;;;;;1858507;76;26635;-38
2022/12/07 11:08:03;;;;;;;6.40;1.75;;;;;;;;;;1852312;75;26234;-39
2022/12/07 11:10:41;;;;;;;2.47;1.50;;;;;;;;;;1858027;76;26206;-40
2022/12/07 11:13:13;;;;;;;4.50;1.62;;;;;;;;;;1851857;76;27318;-51
2022/12/07 11:15:42;;;;;;;1.72;1.20;;;;;;;;;;1856452;76;26262;-45
2022/12/07 11:18:13;;;;;;;1.82;1.50;;;;;;;;;;1856564;76;26544;-43
2022/12/07 11:20:54;;;;;;;1.30;1.20;;;;;;;;;;1854764;76;26228;-50
2022/12/07 11:23:29;;;;;;;3.27;1.30;;;;;;;;;;1854679;76;26710;-52
2022/12/07 11:25:57;;;;;;;2.02;1.20;;;;;;;;;;1854962;76;26230;-42
2022/12/07 11:28:26;;;;;;;1.82;1.30;;;;;;;;;;1820598;75;26779;-41
2022/12/07 11:31:11;;;;;;;1.20;1.10;;;;;;;;;;1852358;76;26639;-41
2022/12/07 11:33:40;;;;;;;1.40;1.00;;;;;;;;;;1855786;76;26163;-52
2022/12/07 11:36:25;;;;;;;1.82;1.20;;;;;;;;;;1851712;76;26316;-39
2022/12/07 11:38:54;;;;;;;5.45;1.22;;;;;;;;;;1851868;76;26202;-42
2022/12/07 11:41:22;;;;;;;1.12;1.05;;;;;;;;;;1858210;76;26762;-39
2022/12/07 11:43:54;;;;;;;1.40;1.12;;;;;;;;;;1857670;76;26650;-43
2022/12/07 11:46:24;;;;;;;1.02;0.93;;;;;;;;;;1855588;76;26255;-37
2022/12/07 11:49:04;;;;;;;2.22;1.10;;;;;;;;;;1856737;76;26289;-37
2022/12/07 11:51:33;;;;;;;2.10;1.10;;;;;;;;;;1852867;75;26675;-47
2022/12/07 11:54:02;;;;;;;2.33;1.12;;;;;;;;;;1856279;76;26277;-39
2022/12/07 11:56:31;;;;;;;1.00;0.80;;;;;;;;;;1856899;76;26223;-43
2022/12/07 11:59:00;;;;;;;1.00;1.00;;;;;;;;;;1857416;76;26264;-45
2022/12/07 12:01:41;;;;;;;1.22;1.02;;;;;;;;;;1852739;76;26601;-42
2022/12/07 12:04:13;;;;;;;1.20;1.10;;;;;;;;;;1847208;76;26738;-39
2022/12/07 12:06:41;;;;;;;1.15;1.15;;;;;;;;;;1854943;76;26697;-40
2022/12/07 12:09:16;;;;;;;2.37;1.05;;;;;;;;;;1853942;75;26276;-37
2022/12/07 12:11:45;;;;;;;0.90;0.90;;;;;;;;;;1855089;76;26223;-41
2022/12/07 12:14:16;;;;;;;0.98;0.90;;;;;;;;;;1853355;76;26205;-36
2022/12/07 12:16:45;;;;;;;0.85;0.75;;;;;;;;;;1851128;76;26671;-44
2022/12/07 12:19:30;;;;;;;1.75;0.93;;;;;;;;;;1855377;75;26722;-36
2022/12/07 12:21:59;;;;;;;0.98;0.98;;;;;;;;;;1852075;75;26559;-38
2022/12/07 12:24:28;;;;;;;1.37;0.80;;;;;;;;;;1857353;76;26174;-41
2022/12/07 12:27:05;;;;;;;0.95;0.80;;;;;;;;;;1851455;76;26362;-36
2022/12/07 12:29:34;;;;;;;1.07;0.98;;;;;;;;;;1851445;76;26180;-45
2022/12/07 12:32:06;;;;;;;1.12;0.88;;;;;;;;;;1855573;76;26175;-40
2022/12/07 12:34:35;;;;;;;0.80;0.80;;;;;;;;;;1847032;76;26311;-50
2022/12/07 12:37:02;;;;;;;0.65;0.65;;;;;;;;;;1852070;76;26734;-35
2022/12/07 12:39:29;;;;;;;0.70;0.70;;;;;;;;;;1851489;76;26733;-44
2022/12/07 12:44:33;;;;;;;0.88;0.70;;;;;;;;;;1857907;76;26198;-37
2022/12/07 12:47:04;;;;;;;0.68;0.68;;;;;;;;;;1853548;76;26496;-37
2022/12/07 12:49:33;;;;;;;0.88;0.65;;;;;;;;;;1846678;76;26594;-45
2022/12/07 12:52:03;;;;;;;0.72;0.72;;;;;;;;;;1850104;77;26254;-39
2022/12/07 12:54:32;;;;;;;0.60;0.60;;;;;;;;;;1846938;77;26175;-37
2022/12/07 12:57:03;;;;;;;0.60;0.60;;;;;;;;;;1847809;77;26223;-40
2022/12/07 12:59:34;;;;;;;0.95;0.78;;;;;;;;;;1844271;77;26238;-38
2022/12/07 13:02:19;;;;;;;0.70;0.70;;;;;;;;;;1848930;77;26752;-42
2022/12/07 13:04:56;;;;;;;0.90;0.60;;;;;;;;;;1848170;77;26272;-37
2022/12/07 13:07:41;;;;;;;0.70;0.70;;;;;;;;;;1846583;77;26234;-38
2022/12/07 13:10:29;;;;;;;0.65;0.65;;;;;;;;;;1849908;77;26252;-38
2022/12/07 13:12:59;;;;;;;3.27;0.60;;;;;;;;;;1844298;77;26849;-39
2022/12/07 13:15:34;;;;;;;12.85;1.00;;;;;;;;;;1844487;77;26717;-39
2022/12/07 13:18:02;;;;;;;0.60;0.60;;;;;;;;;;1849548;77;26646;-37
2022/12/07 13:20:45;;;;;;;2.02;0.95;;;;;;;;;;1845855;77;26757;-39
2022/12/07 13:23:13;;;;;;;1.02;0.50;;;;;;;;;;1764812;80;26345;-47
2022/12/07 13:25:47;;;;;;;0.50;0.50;;;;;;;;;;1819320;77;26199;-37
2022/12/07 13:28:19;;;;;;;2.55;0.70;;;;;;;;;;1847188;77;26245;-41
2022/12/07 13:30:48;;;;;;;0.60;0.60;;;;;;;;;;1848126;77;26798;-39
2022/12/07 13:33:16;;;;;;;0.60;0.42;;;;;;;;;;1847618;77;26225;-37
2022/12/07 13:35:43;;;;;;;0.85;0.60;;;;;;;;;;1850100;77;26573;-35
2022/12/07 13:38:29;;;;;;;0.40;0.40;;;;;;;;;;1843262;77;26218;-41
2022/12/07 13:41:03;;;;;;;0.40;0.40;;;;;;;;;;1845017;77;26197;-50
2022/12/07 13:43:30;;;;;;;0.50;0.50;;;;;;;;;;1845735;77;26806;-38
2022/12/07 13:45:58;;;;;;;1.30;0.40;;;;;;;;;;1844155;77;26273;-35
2022/12/07 13:48:27;;;;;;;0.40;0.40;;;;;;;;;;1843110;77;26260;-38
2022/12/07 13:50:55;;;;;;;0.40;0.40;;;;;;;;;;1850898;77;26257;-42
2022/12/07 13:53:23;;;;;;;0.40;0.40;;;;;;;;;;1853251;76;26280;-38
2022/12/07 13:55:50;;;;;;;0.40;0.40;;;;;;;;;;1853715;76;26265;-37
2022/12/07 13:58:17;;;;;;;0.40;0.40;;;;;;;;;;1850235;77;26706;-35
2022/12/07 14:00:45;;;;;;;0.60;0.60;;;;;;;;;;1852570;76;26287;-43
2022/12/07 14:03:14;;;;;;;0.50;0.50;;;;;;;;;;1851454;77;26332;-40
2022/12/07 14:05:42;;;;;;;1.12;0.50;;;;;;;;;;1853301;76;26120;-44
2022/12/07 14:08:14;;;;;;;0.37;0.37;;;;;;;;;;1856988;75;26851;-38
2022/12/07 14:10:43;;;;;;;0.40;0.40;;;;;;;;;;1852825;76;26265;-41
2022/12/07 14:13:28;;;;;;;0.40;0.37;;;;;;;;;;1857135;77;26224;-38
2022/12/07 14:15:57;;;;;;;0.65;0.40;;;;;;;;;;1851573;76;26272;-37
2022/12/07 14:18:37;;;;;;;0.40;0.40;;;;;;;;;;1849804;77;26222;-45
2022/12/07 14:21:12;;;;;;;0.40;0.40;;;;;;;;;;1849516;75;26339;-37
2022/12/07 14:23:40;;;;;;;0.40;0.40;;;;;;;;;;1852384;75;26562;-39
2022/12/07 14:26:09;;;;;;;0.30;0.30;;;;;;;;;;1855294;77;26304;-39
2022/12/07 14:28:37;;;;;;;0.30;0.30;;;;;;;;;;1850819;76;26686;-36
2022/12/07 14:31:06;;;;;;;0.40;0.40;;;;;;;;;;1855124;76;26203;-36
2022/12/07 14:33:33;;;;;;;0.40;0.40;;;;;;;;;;1847528;76;26242;-39
2022/12/07 14:36:00;;;;;;;0.40;0.40;;;;;;;;;;1848653;77;38389;-47
2022/12/07 14:38:27;;;;;;;0.23;0.23;;;;;;;;;;1849041;76;26343;-36
2022/12/07 14:41:50;;;;;;;0.33;0.33;;;;;;;;;;1851695;76;26326;-42
2022/12/07 14:43:24;;;;;;;0.50;0.50;;;;;;;;;;1848851;75;26789;-47
2022/12/07 14:45:51;;;;;;;0.70;0.50;;;;;;;;;;1850534;76;26625;-40
2022/12/07 14:48:19;;;;;;;0.42;0.42;;;;;;;;;;1850788;77;26883;-40
2022/12/07 14:50:47;;;;;;;0.40;0.40;;;;;;;;;;1854694;76;26663;-36
2022/12/07 14:53:16;;;;;;;0.47;0.47;;;;;;;;;;1858953;76;26329;-40
2022/12/07 14:55:44;;;;;;;0.40;0.40;;;;;;;;;;1853815;76;26338;-40
2022/12/07 14:58:18;;;;;;;0.45;0.45;;;;;;;;;;1853523;76;26718;-38
2022/12/07 15:00:45;;;;;;;0.40;0.40;;;;;;;;;;1853130;75;26215;-46
2022/12/07 15:03:12;;;;;;;0.37;0.37;;;;;;;;;;1853916;76;26193;-36
2022/12/07 15:05:40;;;;;;;0.40;0.40;;;;;;;;;;1855641;75;26909;-37
2022/12/07 15:08:09;;;;;;;0.40;0.40;;;;;;;;;;1854903;75;26275;-44
2022/12/07 15:10:38;;;;;;;0.50;0.50;;;;;;;;;;1852657;76;26648;-42
2022/12/07 15:15:52;;;;;;;0.47;0.47;;;;;;;;;;1860056;76;26216;-44